Avalon Express — WDD7919 — position and weather

sailwx.info

Track history (hours):
 
Tides and Currents Weather Stations Pressure Air Temp Water Temp Dewpoint Dewpoint Depression Visibility Wind Speed Wind Dir Waves Ship Positions

Avalon Express

Owner: RGWT INC, San Pedro, CA. More information available from US FCC via Universal Licensing System and Coast Guard Vessel Documentation Center.

Last reported at 2017-Feb-20 01:07 UTC. Time now 2017-Feb-24 10:31 UTC.
Position N 33°22' W 118°19'.

Type: High speed craft. MMSI: 367192940.

Date/timePositionNaut miles runAvg speedWind from/ knotsBaromVisibWave heightAir tempDewpointWater temp
2017-Feb-20 01:07N 33°22' W 118°19'1 2.0
2017-Feb-20 00:23N 33°21' W 118°20'0 0.0
2017-Feb-19 22:16N 33°21' W 118°20'2 0.1
2017-Feb-19 01:09N 33°23' W 118°18'2 1.2
2017-Feb-18 23:28N 33°21' W 118°20'0 0.0
2017-Feb-18 22:26N 33°21' W 118°20'0 0.0
2017-Feb-18 21:33N 33°21' W 118°20'1 0.5
2017-Feb-18 20:18N 33°21' W 118°19'26 0.6
2017-Feb-16 23:33N 33°46' W 118°12'4 3.9
2017-Feb-16 22:33N 33°45' W 118°16'  
2017-Feb-14 03:33N 33°45' W 118°16'1 0.6
2017-Feb-14 02:23N 33°44' W 118°17'1821.6
2017-Feb-14 01:34N 33°26' W 118°18'9 6.2
2017-Feb-14 00:03N 33°27' W 118°29'1224.6
2017-Feb-13 23:33N 33°36' W 118°20'9 9.3
2017-Feb-13 22:33N 33°45' W 118°16'0 0.0
2017-Feb-13 21:34N 33°45' W 118°16'1 1.0
2017-Feb-13 20:33N 33°44' W 118°16'2311.6
2017-Feb-13 18:34N 33°21' W 118°19'1616.0
2017-Feb-13 17:34N 33°37' W 118°16'8 8.1
2017-Feb-13 16:33N 33°45' W 118°16'0 0.0
2017-Feb-13 15:33N 33°45' W 118°16'0 0.0
2017-Feb-13 14:34N 33°45' W 118°16'  
2017-Feb-11 02:34N 33°21' W 118°19'24 6.0
2017-Feb-10 22:29N 33°45' W 118°16'0 0.0
2017-Feb-10 17:12N 33°45' W 118°16'  
Track history (hours):
 
Tides and Currents Weather Stations Pressure Air Temp Water Temp Dewpoint Dewpoint Depression Visibility Wind Speed Wind Dir Waves Ship Positions

Avalon Express

Owner: RGWT INC, San Pedro, CA. More information available from US FCC via Universal Licensing System and Coast Guard Vessel Documentation Center.

Last reported at 2017-Feb-20 01:07 UTC. Time now 2017-Feb-24 10:31 UTC.
Position N 33°22' W 118°19'.

Type: High speed craft. MMSI: 367192940.

Date/timePositionNaut miles runAvg speedWind from/ knotsBaromVisibWave heightAir tempDewpointWater temp
2017-Feb-20 01:07N 33°22' W 118°19'1 2.0
2017-Feb-20 00:23N 33°21' W 118°20'0 0.0
2017-Feb-19 22:16N 33°21' W 118°20'2 0.1
2017-Feb-19 01:09N 33°23' W 118°18'2 1.2
2017-Feb-18 23:28N 33°21' W 118°20'0 0.0
2017-Feb-18 22:26N 33°21' W 118°20'0 0.0
2017-Feb-18 21:33N 33°21' W 118°20'1 0.5
2017-Feb-18 20:18N 33°21' W 118°19'26 0.6
2017-Feb-16 23:33N 33°46' W 118°12'4 3.9
2017-Feb-16 22:33N 33°45' W 118°16'  
2017-Feb-14 03:33N 33°45' W 118°16'1 0.6
2017-Feb-14 02:23N 33°44' W 118°17'1821.6
2017-Feb-14 01:34N 33°26' W 118°18'9 6.2
2017-Feb-14 00:03N 33°27' W 118°29'1224.6
2017-Feb-13 23:33N 33°36' W 118°20'9 9.3
2017-Feb-13 22:33N 33°45' W 118°16'0 0.0
2017-Feb-13 21:34N 33°45' W 118°16'1 1.0
2017-Feb-13 20:33N 33°44' W 118°16'2311.6
2017-Feb-13 18:34N 33°21' W 118°19'1616.0
2017-Feb-13 17:34N 33°37' W 118°16'8 8.1
2017-Feb-13 16:33N 33°45' W 118°16'0 0.0
2017-Feb-13 15:33N 33°45' W 118°16'0 0.0
2017-Feb-13 14:34N 33°45' W 118°16'  
2017-Feb-11 02:34N 33°21' W 118°19'24 6.0
2017-Feb-10 22:29N 33°45' W 118°16'0 0.0
2017-Feb-10 17:12N 33°45' W 118°16'  

Dump ship's entire track history